createdAt,value
2022-09-06T00:00:30.195Z,98313.98
2022-09-06T00:02:58.388Z,98317.55
2022-09-06T00:05:27.308Z,98311.66
2022-09-06T00:07:55.346Z,98319.54
2022-09-06T00:10:23.444Z,98319.42
2022-09-06T00:12:51.528Z,98321.02
2022-09-06T00:15:20.005Z,98317.30
2022-09-06T00:17:49.031Z,98319.41
2022-09-06T00:20:18.009Z,98316.50
2022-09-06T00:22:45.942Z,98308.90
2022-09-06T00:25:14.742Z,98307.32
2022-09-06T00:27:42.953Z,98304.16
2022-09-06T00:30:12.053Z,98306.80
2022-09-06T00:32:41.287Z,98308.06
2022-09-06T00:35:09.651Z,98308.27
2022-09-06T00:37:37.656Z,98306.36
2022-09-06T00:40:06.301Z,98308.16
2022-09-06T00:42:34.261Z,98303.66
2022-09-06T00:45:02.630Z,98297.04
2022-09-06T00:47:30.985Z,98293.01
2022-09-06T00:50:00.824Z,98295.59
2022-09-06T00:52:30.579Z,98294.77
2022-09-06T00:54:59.861Z,98295.39
2022-09-06T00:57:31.002Z,98288.40
2022-09-06T01:00:04.813Z,98285.86
2022-09-06T01:02:32.990Z,98289.12
2022-09-06T01:05:02.884Z,98291.73
2022-09-06T01:07:42.929Z,98288.70
2022-09-06T01:10:29.001Z,98296.73
2022-09-06T01:13:18.672Z,98305.08
2022-09-06T01:16:31.947Z,98302.54
2022-09-06T01:19:21.286Z,98293.30
2022-09-06T01:22:17.302Z,98294.23
2022-09-06T01:24:48.497Z,98297.42
2022-09-06T01:27:44.297Z,98299.14
2022-09-06T01:30:14.711Z,98304.42
2022-09-06T01:32:57.650Z,98303.02
2022-09-06T01:35:34.458Z,98306.98
2022-09-06T01:38:04.020Z,98313.48
2022-09-06T01:40:36.528Z,98307.80
2022-09-06T01:43:11.051Z,98308.53
2022-09-06T01:46:12.866Z,98312.20
2022-09-06T01:48:46.842Z,98309.86
2022-09-06T01:51:20.839Z,98311.81
2022-09-06T01:54:06.319Z,98316.42
2022-09-06T01:56:54.229Z,98314.34
2022-09-06T01:59:31.303Z,98308.81
2022-09-06T02:02:28.083Z,98305.12
2022-09-06T02:05:09.199Z,98306.25
2022-09-06T02:07:38.503Z,98308.41
2022-09-06T02:10:09.213Z,98319.80
2022-09-06T02:12:41.339Z,98319.14
2022-09-06T02:15:19.988Z,98315.77
2022-09-06T02:17:56.359Z,98311.09
2022-09-06T02:20:28.831Z,98315.52
2022-09-06T02:23:01.700Z,98312.33
2022-09-06T02:25:44.036Z,98309.09
2022-09-06T02:28:14.921Z,98311.08
2022-09-06T02:30:49.302Z,98313.28
2022-09-06T02:33:21.119Z,98313.40
2022-09-06T02:35:52.330Z,98314.63
2022-09-06T02:38:27.181Z,98312.20
2022-09-06T02:40:57.090Z,98314.33
2022-09-06T02:43:25.044Z,98314.64
2022-09-06T02:45:53.438Z,98320.88
2022-09-06T02:48:22.523Z,98320.33
2022-09-06T02:50:50.506Z,98322.58
2022-09-06T02:53:20.681Z,98323.40
2022-09-06T02:55:49.174Z,98323.38
2022-09-06T02:58:17.339Z,98322.13
2022-09-06T03:00:45.446Z,98317.09
2022-09-06T03:03:13.577Z,98319.59
2022-09-06T03:05:41.814Z,98325.08
2022-09-06T03:08:09.916Z,98320.42
2022-09-06T03:10:38.157Z,98319.71
2022-09-06T03:13:06.259Z,98320.77
2022-09-06T03:15:34.792Z,98324.02
2022-09-06T03:18:02.780Z,98321.38
2022-09-06T03:20:35.043Z,98325.69
2022-09-06T03:23:05.685Z,98324.59
2022-09-06T03:25:33.724Z,98327.10
2022-09-06T03:28:01.984Z,98326.39
2022-09-06T03:30:30.066Z,98330.95
2022-09-06T03:33:02.597Z,98330.19
2022-09-06T03:35:31.544Z,98329.27
2022-09-06T03:37:59.528Z,98332.09
2022-09-06T03:40:27.581Z,98330.98
2022-09-06T03:42:55.627Z,98331.99
2022-09-06T03:45:23.902Z,98330.98
2022-09-06T03:47:51.930Z,98329.67
2022-09-06T03:50:20.015Z,98321.09
2022-09-06T03:52:48.130Z,98317.17
2022-09-06T03:55:16.354Z,98323.23
2022-09-06T03:57:44.427Z,98323.91
2022-09-06T04:00:13.441Z,98335.42
2022-09-06T04:02:41.535Z,98339.52
2022-09-06T04:05:10.364Z,98346.34
2022-09-06T04:07:38.354Z,98345.88
2022-09-06T04:10:07.142Z,98345.77
2022-09-06T04:12:35.379Z,98341.83
2022-09-06T04:15:03.977Z,98347.73
2022-09-06T04:17:32.003Z,98349.21
2022-09-06T04:20:03.022Z,98350.78
2022-09-06T04:22:31.731Z,98347.19
2022-09-06T04:25:01.641Z,98344.00
2022-09-06T04:27:30.783Z,98343.16
2022-09-06T04:29:59.106Z,98345.77
2022-09-06T04:32:27.256Z,98349.52
2022-09-06T04:34:55.263Z,98347.30
2022-09-06T04:37:23.751Z,98344.46
2022-09-06T04:39:51.910Z,98341.27
2022-09-06T04:42:20.041Z,98344.30
2022-09-06T04:44:48.208Z,98341.46
2022-09-06T04:47:18.314Z,98343.63
2022-09-06T04:49:48.332Z,98340.23
2022-09-06T04:52:18.366Z,98330.71
2022-09-06T04:54:46.535Z,98329.85
2022-09-06T04:57:14.635Z,98330.31
2022-09-06T04:59:42.891Z,98325.98
2022-09-06T05:02:11.262Z,98326.05
2022-09-06T05:04:39.367Z,98331.61
2022-09-06T05:07:08.852Z,98330.66
2022-09-06T05:09:37.094Z,98326.33
2022-09-06T05:12:07.392Z,98326.34
2022-09-06T05:14:36.057Z,98324.95
2022-09-06T05:17:04.365Z,98324.46
2022-09-06T05:19:32.522Z,98321.11
2022-09-06T05:22:00.954Z,98320.06
2022-09-06T05:24:29.493Z,98316.49
2022-09-06T05:27:03.867Z,98310.30
2022-09-06T05:29:31.982Z,98308.14
2022-09-06T05:32:00.163Z,98307.07
2022-09-06T05:34:28.349Z,98305.19
2022-09-06T05:36:57.541Z,98303.88
2022-09-06T05:39:26.175Z,98301.69
2022-09-06T05:41:54.471Z,98300.65
2022-09-06T05:44:22.596Z,98297.44
2022-09-06T05:46:50.945Z,98294.21
2022-09-06T05:49:19.079Z,98292.05
2022-09-06T05:51:51.706Z,98295.73
2022-09-06T05:54:20.043Z,98298.11
2022-09-06T05:56:48.519Z,98299.60
2022-09-06T05:59:17.143Z,98298.90
2022-09-06T06:01:50.410Z,98292.98
2022-09-06T06:04:19.822Z,98288.69
2022-09-06T06:06:49.111Z,98290.23
2022-09-06T06:09:17.697Z,98294.39
2022-09-06T06:11:46.002Z,98285.04
2022-09-06T06:14:14.053Z,98282.59
2022-09-06T06:16:42.226Z,98280.81
2022-09-06T06:19:10.456Z,98279.65
2022-09-06T06:21:39.130Z,98282.80
2022-09-06T06:24:07.455Z,98280.08
2022-09-06T06:26:37.422Z,98282.37
2022-09-06T06:29:09.617Z,98281.92
2022-09-06T06:31:41.008Z,98285.33
2022-09-06T06:34:09.275Z,98286.59
2022-09-06T06:36:38.207Z,98295.41
2022-09-06T06:39:08.733Z,98297.36
2022-09-06T06:41:37.843Z,98295.60
2022-09-06T06:44:24.987Z,98303.17
2022-09-06T06:46:53.483Z,98302.05
2022-09-06T06:49:21.613Z,98300.99
2022-09-06T06:51:50.696Z,98302.83
2022-09-06T06:54:19.154Z,98309.48
2022-09-06T06:56:47.615Z,98310.92
2022-09-06T06:59:16.487Z,98313.58
2022-09-06T07:01:45.002Z,98316.16
2022-09-06T07:04:14.488Z,98317.75
2022-09-06T07:12:27.812Z,98313.73
2022-09-06T07:14:56.337Z,98313.19
2022-09-06T07:17:24.700Z,98316.61
2022-09-06T07:22:42.667Z,98312.70
2022-09-06T07:25:14.417Z,98310.19
2022-09-06T07:30:21.364Z,98316.09
2022-09-06T07:32:49.943Z,98311.21
2022-09-06T07:35:20.803Z,98312.23
2022-09-06T07:37:56.394Z,98307.25
2022-09-06T07:40:26.985Z,98308.45
2022-09-06T07:42:59.643Z,98309.36
2022-09-06T07:45:28.636Z,98310.16
2022-09-06T07:48:00.790Z,98309.05
2022-09-06T07:50:48.007Z,98305.33
2022-09-06T07:53:24.646Z,98305.70
2022-09-06T07:56:00.989Z,98303.83
2022-09-06T07:58:30.761Z,98299.48
2022-09-06T08:01:31.637Z,98292.03
2022-09-06T08:04:18.764Z,98284.03
2022-09-06T08:09:42.229Z,98277.79
2022-09-06T08:12:10.605Z,98278.52
2022-09-06T08:14:39.271Z,98273.10
2022-09-06T08:17:10.345Z,98273.86
2022-09-06T08:19:39.205Z,98270.83
2022-09-06T08:22:07.624Z,98266.90
2022-09-06T08:24:38.815Z,98264.44
2022-09-06T08:27:11.404Z,98260.01
2022-09-06T08:29:40.138Z,98254.02
2022-09-06T08:32:08.563Z,98252.23
2022-09-06T08:34:37.325Z,98251.74
2022-09-06T08:37:05.861Z,98243.10
2022-09-06T08:39:35.004Z,98232.77
2022-09-06T08:42:07.812Z,98229.36
2022-09-06T08:44:56.745Z,98223.95
2022-09-06T08:47:26.415Z,98220.94
2022-09-06T08:50:02.546Z,98220.32
2022-09-06T08:52:35.064Z,98219.21
2022-09-06T08:55:06.726Z,98218.15
2022-09-06T08:57:58.978Z,98211.50
2022-09-06T09:00:27.880Z,98213.41
2022-09-06T09:03:05.642Z,98213.54
2022-09-06T09:05:37.531Z,98212.22
2022-09-06T09:08:16.238Z,98207.40
2022-09-06T09:10:56.981Z,98202.13
2022-09-06T09:13:35.962Z,98199.19
2022-09-06T09:16:07.312Z,98194.02
2022-09-06T09:18:40.259Z,98194.85
2022-09-06T09:21:11.131Z,98185.92
2022-09-06T09:23:39.745Z,98184.50
2022-09-06T09:26:16.726Z,98180.23
2022-09-06T09:29:14.183Z,98179.48
2022-09-06T09:31:56.365Z,98177.75
2022-09-06T09:34:34.408Z,98173.92
2022-09-06T09:40:03.169Z,98166.28
2022-09-06T09:42:39.962Z,98166.23
2022-09-06T09:45:31.275Z,98165.23
2022-09-06T09:48:29.484Z,98166.81
2022-09-06T09:51:25.442Z,98165.72
2022-09-06T09:54:04.803Z,98163.04
2022-09-06T09:56:53.104Z,98164.05
2022-09-06T09:59:27.127Z,98163.95
2022-09-06T10:02:00.281Z,98168.17
2022-09-06T10:04:46.028Z,98163.79
2022-09-06T10:07:18.539Z,98161.56
2022-09-06T10:09:52.011Z,98158.96
2022-09-06T10:12:35.310Z,98159.06
2022-09-06T10:15:06.996Z,98159.45
2022-09-06T10:17:48.448Z,98162.85
2022-09-06T10:20:19.377Z,98159.60
2022-09-06T10:23:10.416Z,98159.49
2022-09-06T10:26:13.844Z,98157.57
2022-09-06T10:28:42.769Z,98153.94
2022-09-06T10:31:16.639Z,98155.88
2022-09-06T10:34:03.192Z,98158.48
2022-09-06T10:36:49.991Z,98159.81
2022-09-06T10:39:42.238Z,98158.38
2022-09-06T10:42:21.286Z,98158.61
2022-09-06T10:45:26.929Z,98160.19
2022-09-06T10:47:58.490Z,98158.98
2022-09-06T10:50:57.796Z,98156.08
2022-09-06T10:53:59.106Z,98154.09
2022-09-06T10:57:07.199Z,98154.67
2022-09-06T10:59:56.918Z,98155.22
2022-09-06T11:02:40.730Z,98153.48
2022-09-06T11:11:24.416Z,98150.56
2022-09-06T11:13:53.310Z,98147.34
2022-09-06T11:16:32.679Z,98148.69
2022-09-06T11:19:11.485Z,98146.77
2022-09-06T11:22:08.471Z,98145.88
2022-09-06T11:24:58.954Z,98149.85
2022-09-06T11:27:56.155Z,98146.38
2022-09-06T11:30:54.358Z,98140.59
2022-09-06T11:33:35.542Z,98137.45
2022-09-06T11:36:26.866Z,98136.92
2022-09-06T11:39:00.260Z,98137.41
2022-09-06T11:41:36.204Z,98135.54
2022-09-06T11:44:20.643Z,98138.77
2022-09-06T11:46:57.077Z,98133.10
2022-09-06T11:49:35.862Z,98131.30
2022-09-06T11:52:46.514Z,98132.67
2022-09-06T11:55:22.634Z,98126.85
2022-09-06T11:58:01.737Z,98124.73
2022-09-06T12:00:30.155Z,98122.33
2022-09-06T12:06:33.097Z,98116.02
2022-09-06T12:09:30.082Z,98108.83
2022-09-06T12:12:00.865Z,98106.95
2022-09-06T12:14:40.774Z,98099.77
2022-09-06T12:17:10.094Z,98095.63
2022-09-06T12:19:54.367Z,98091.91
2022-09-06T12:22:43.488Z,98086.20
2022-09-06T12:25:51.816Z,98082.20
2022-09-06T12:29:00.178Z,98078.40
2022-09-06T12:31:40.118Z,98072.91
2022-09-06T12:34:22.067Z,98071.41
2022-09-06T12:37:10.795Z,98070.84
2022-09-06T12:39:39.645Z,98066.63
2022-09-06T12:42:16.600Z,98063.02
2022-09-06T12:44:51.978Z,98056.14
2022-09-06T12:47:35.435Z,98056.00
2022-09-06T12:50:15.322Z,98052.09
2022-09-06T12:52:54.870Z,98048.19
2022-09-06T12:55:32.818Z,98044.26
2022-09-06T12:58:29.749Z,98052.06
2022-09-06T13:01:14.589Z,98047.36
2022-09-06T13:04:08.251Z,98039.18
2022-09-06T13:06:42.929Z,98038.27
2022-09-06T13:09:17.114Z,98033.93
2022-09-06T13:11:51.299Z,98029.66
2022-09-06T13:14:29.237Z,98025.59
2022-09-06T13:17:01.689Z,98026.89
2022-09-06T13:19:30.435Z,98027.69
2022-09-06T13:22:03.954Z,98025.62
2022-09-06T13:24:46.898Z,98025.66
2022-09-06T13:27:38.519Z,98023.95
2022-09-06T13:30:11.918Z,98021.29
2022-09-06T13:32:50.339Z,98016.17
2022-09-06T13:35:24.066Z,98011.90
2022-09-06T13:37:52.876Z,98011.51
2022-09-06T13:41:09.838Z,98009.48
2022-09-06T13:43:42.957Z,98007.73
2022-09-06T13:46:11.885Z,98006.13
2022-09-06T13:48:41.621Z,98005.55
2022-09-06T13:51:11.124Z,98004.67
2022-09-06T13:53:39.369Z,98001.71
2022-09-06T13:56:08.899Z,98000.38
2022-09-06T13:58:37.866Z,97996.41
2022-09-06T14:01:10.135Z,97992.64
2022-09-06T14:03:42.198Z,97986.71
2022-09-06T14:06:11.785Z,97987.40
2022-09-06T14:11:31.504Z,97984.86
2022-09-06T14:13:59.994Z,97982.50
2022-09-06T14:16:28.489Z,97977.29
2022-09-06T14:19:00.129Z,97983.39
2022-09-06T14:21:28.982Z,97984.23
2022-09-06T14:24:03.860Z,97981.65
2022-09-06T14:26:34.443Z,97979.90
2022-09-06T14:29:04.505Z,97979.97
2022-09-06T14:31:33.295Z,97981.76
2022-09-06T14:34:02.846Z,97980.26
2022-09-06T14:36:34.009Z,97978.37
2022-09-06T14:39:05.634Z,97978.67
2022-09-06T14:41:34.398Z,97975.93
2022-09-06T14:44:04.413Z,97975.34
2022-09-06T14:46:32.862Z,97970.52
2022-09-06T14:49:10.264Z,97969.32
2022-09-06T14:51:40.830Z,97964.05
2022-09-06T14:54:13.164Z,97966.70
2022-09-06T14:56:43.968Z,97964.48
2022-09-06T14:59:13.465Z,97962.42
2022-09-06T15:01:42.100Z,97960.34
2022-09-06T15:04:12.066Z,97957.23
2022-09-06T15:06:45.119Z,97958.88
2022-09-06T15:09:17.518Z,97955.85
2022-09-06T15:11:48.959Z,97955.91
2022-09-06T15:14:23.571Z,97952.84
2022-09-06T15:17:00.173Z,97954.52
2022-09-06T15:19:30.559Z,97949.70
2022-09-06T15:22:03.714Z,97947.48
2022-09-06T15:24:33.891Z,97948.43
2022-09-06T15:27:02.291Z,97946.27
2022-09-06T15:29:32.842Z,97943.62
2022-09-06T15:32:01.126Z,97936.02
2022-09-06T15:34:29.894Z,97938.25
2022-09-06T15:36:58.568Z,97940.90
2022-09-06T15:39:27.995Z,97937.30
2022-09-06T15:41:58.058Z,97940.98
2022-09-06T15:44:26.743Z,97941.81
2022-09-06T15:47:02.387Z,97944.05
2022-09-06T15:49:32.914Z,97943.42
2022-09-06T15:52:03.162Z,97940.44
2022-09-06T15:54:50.294Z,97938.54
2022-09-06T15:57:18.756Z,97935.77
2022-09-06T15:59:48.632Z,97937.70
2022-09-06T16:02:17.253Z,97939.91
2022-09-06T16:04:46.825Z,97942.52
2022-09-06T16:07:15.381Z,97941.86
2022-09-06T16:09:45.553Z,97941.07
2022-09-06T16:12:15.210Z,97941.92
2022-09-06T16:14:43.626Z,97942.70
2022-09-06T16:17:12.524Z,97938.90
2022-09-06T16:19:41.470Z,97939.75
2022-09-06T16:22:10.339Z,97943.20
2022-09-06T16:24:39.337Z,97938.77
2022-09-06T16:27:07.816Z,97938.85
2022-09-06T16:29:36.963Z,97945.66
2022-09-06T16:32:05.349Z,97945.38
2022-09-06T16:34:34.119Z,97942.59
2022-09-06T16:37:08.214Z,97940.28
2022-09-06T16:39:37.865Z,97939.56
2022-09-06T16:42:06.897Z,97942.89
2022-09-06T16:44:35.429Z,97943.16
2022-09-06T16:47:05.217Z,97947.27
2022-09-06T16:49:36.702Z,97946.92
2022-09-06T16:52:05.314Z,97945.21
2022-09-06T16:54:34.091Z,97948.73
2022-09-06T16:57:05.182Z,97945.77
2022-09-06T16:59:34.508Z,97948.38
2022-09-06T17:02:03.450Z,97948.52
2022-09-06T17:04:32.099Z,97954.79
2022-09-06T17:07:00.661Z,97954.59
2022-09-06T17:09:29.012Z,97956.77
2022-09-06T17:11:57.449Z,97956.67
2022-09-06T17:14:25.939Z,97957.98
2022-09-06T17:17:06.047Z,97959.83
2022-09-06T17:19:37.711Z,97964.14
2022-09-06T17:22:06.281Z,97965.39
2022-09-06T17:24:34.472Z,97965.13
2022-09-06T17:27:04.637Z,97963.67
2022-09-06T17:29:33.338Z,97966.50
2022-09-06T17:32:04.484Z,97964.99
2022-09-06T17:34:32.805Z,97969.69
2022-09-06T17:37:01.069Z,97971.57
2022-09-06T17:39:29.611Z,97975.79
2022-09-06T17:41:59.794Z,97971.71
2022-09-06T17:44:28.751Z,97976.61
2022-09-06T17:47:14.027Z,97973.41
2022-09-06T17:49:43.639Z,97975.92
2022-09-06T17:52:12.457Z,97982.00
2022-09-06T17:54:41.260Z,97983.23
2022-09-06T17:57:10.240Z,97987.85
2022-09-06T17:59:39.674Z,97992.64
2022-09-06T18:02:08.610Z,97997.05
2022-09-06T18:04:37.114Z,97998.87
2022-09-06T18:07:05.378Z,98001.40
2022-09-06T18:09:34.127Z,98002.60
2022-09-06T18:12:04.024Z,97998.92
2022-09-06T18:14:34.562Z,97999.69
2022-09-06T18:17:03.033Z,98005.75
2022-09-06T18:19:31.240Z,98010.66
2022-09-06T18:21:59.589Z,98010.23
2022-09-06T18:24:29.202Z,98012.16
2022-09-06T18:26:57.636Z,98015.58
2022-09-06T18:29:25.768Z,98021.06
2022-09-06T18:31:54.187Z,98034.93
2022-09-06T18:34:22.867Z,98034.19
2022-09-06T18:36:51.206Z,98035.30
2022-09-06T18:39:20.559Z,98034.80
2022-09-06T18:42:01.155Z,98029.25
2022-09-06T18:44:32.941Z,98031.80
2022-09-06T18:47:03.417Z,98036.27
2022-09-06T18:49:33.926Z,98037.89
2022-09-06T18:52:04.191Z,98035.73
2022-09-06T18:54:32.876Z,98038.01
2022-09-06T18:57:01.169Z,98040.64
2022-09-06T18:59:29.315Z,98050.17
2022-09-06T19:01:58.007Z,98050.73
2022-09-06T19:04:26.412Z,98051.45
2022-09-06T19:06:54.776Z,98050.32
2022-09-06T19:09:23.429Z,98049.02
2022-09-06T19:11:53.299Z,98048.11
2022-09-06T19:14:22.094Z,98049.73
2022-09-06T19:16:51.983Z,98050.56
2022-09-06T19:19:21.972Z,98045.75
2022-09-06T19:21:50.913Z,98045.55
2022-09-06T19:24:22.929Z,98045.23
2022-09-06T19:26:53.169Z,98046.08
2022-09-06T19:29:21.451Z,98047.48
2022-09-06T19:31:49.989Z,98045.30
2022-09-06T19:34:18.588Z,98043.70
2022-09-06T19:36:47.265Z,98047.61
2022-09-06T19:39:16.753Z,98046.98
2022-09-06T19:41:47.890Z,98051.44
2022-09-06T19:44:17.120Z,98052.13
2022-09-06T19:46:47.297Z,98055.77
2022-09-06T19:49:17.724Z,98056.31
2022-09-06T19:51:49.210Z,98055.63
2022-09-06T19:54:18.892Z,98056.51
2022-09-06T19:56:47.335Z,98058.87
2022-09-06T19:59:18.119Z,98066.00
2022-09-06T20:01:47.806Z,98069.52
2022-09-06T20:04:16.529Z,98068.98
2022-09-06T20:06:44.746Z,98065.34
2022-09-06T20:09:13.627Z,98063.48
2022-09-06T20:11:42.620Z,98061.81
2022-09-06T20:14:12.175Z,98057.07
2022-09-06T20:16:43.130Z,98053.67
2022-09-06T20:19:12.762Z,98053.62
2022-09-06T20:21:40.968Z,98061.75
2022-09-06T20:24:09.573Z,98054.83
2022-09-06T20:26:37.983Z,98054.59
2022-09-06T20:29:07.263Z,98058.09
2022-09-06T20:31:37.305Z,98055.38
2022-09-06T20:34:07.156Z,98054.88
2022-09-06T20:36:37.398Z,98061.79
2022-09-06T20:39:05.602Z,98062.42
2022-09-06T20:41:34.252Z,98056.99
2022-09-06T20:44:02.788Z,98054.73
2022-09-06T20:46:35.303Z,98057.02
2022-09-06T20:49:05.178Z,98059.80
2022-09-06T20:51:35.680Z,98060.30
2022-09-06T20:54:05.688Z,98058.50
2022-09-06T20:56:39.482Z,98062.40
2022-09-06T20:59:09.928Z,98058.80
2022-09-06T21:01:42.259Z,98059.42
2022-09-06T21:04:12.558Z,98060.16
2022-09-06T21:06:41.317Z,98060.63
2022-09-06T21:09:13.349Z,98060.18
2022-09-06T21:11:41.486Z,98055.33
2022-09-06T21:14:10.987Z,98057.20
2022-09-06T21:16:40.787Z,98061.73
2022-09-06T21:19:11.010Z,98069.23
2022-09-06T21:21:39.881Z,98071.87
2022-09-06T21:24:09.833Z,98065.32
2022-09-06T21:26:38.955Z,98066.77
2022-09-06T21:29:07.168Z,98067.19
2022-09-06T21:31:37.459Z,98066.32
2022-09-06T21:34:11.520Z,98065.04
2022-09-06T21:36:43.250Z,98068.21
2022-09-06T21:39:14.928Z,98067.20
2022-09-06T21:41:44.174Z,98057.98
2022-09-06T21:44:13.337Z,98057.52
2022-09-06T21:46:42.229Z,98052.06
2022-09-06T21:49:12.933Z,98048.72
2022-09-06T21:51:42.365Z,98045.09
2022-09-06T21:54:10.578Z,98044.48
2022-09-06T21:56:40.395Z,98043.11
2022-09-06T21:59:09.257Z,98040.58
2022-09-06T22:01:39.515Z,98037.77
2022-09-06T22:04:08.338Z,98036.42
2022-09-06T22:06:37.929Z,98037.00
2022-09-06T22:09:11.161Z,98032.46
2022-09-06T22:11:42.161Z,98032.34
2022-09-06T22:14:13.430Z,98033.61
2022-09-06T22:16:42.293Z,98032.23
2022-09-06T22:19:11.031Z,98035.45
2022-09-06T22:21:39.695Z,98040.64
2022-09-06T22:24:10.220Z,98037.55
2022-09-06T22:26:40.136Z,98038.41
2022-09-06T22:29:10.958Z,98037.40
2022-09-06T22:31:39.507Z,98034.88
2022-09-06T22:34:08.385Z,98039.55
2022-09-06T22:36:36.578Z,98039.52
2022-09-06T22:39:05.489Z,98034.91
2022-09-06T22:41:34.330Z,98034.36
2022-09-06T22:44:04.092Z,98028.25
2022-09-06T22:46:33.095Z,98026.89
2022-09-06T22:49:02.617Z,98026.80
2022-09-06T22:51:30.874Z,98019.61
2022-09-06T22:53:58.858Z,98019.07
2022-09-06T22:56:29.047Z,98013.27
2022-09-06T22:58:59.970Z,98007.96
2022-09-06T23:01:28.858Z,98010.14
2022-09-06T23:03:56.994Z,98013.77
2022-09-06T23:06:25.763Z,98012.56
2022-09-06T23:08:53.927Z,98008.79
2022-09-06T23:11:21.934Z,98008.02
2022-09-06T23:13:54.913Z,98007.06
2022-09-06T23:16:23.173Z,98006.20
2022-09-06T23:18:51.407Z,98002.27
2022-09-06T23:21:22.612Z,97999.26
2022-09-06T23:23:52.851Z,97999.68
2022-09-06T23:26:23.205Z,97997.73
2022-09-06T23:28:56.568Z,98002.09
2022-09-06T23:31:31.662Z,98001.92
2022-09-06T23:34:00.541Z,98000.33
2022-09-06T23:36:29.105Z,97998.26
2022-09-06T23:38:57.671Z,97994.85
2022-09-06T23:41:25.863Z,97995.73
2022-09-06T23:43:54.719Z,98000.86
2022-09-06T23:46:23.122Z,98003.33
2022-09-06T23:48:51.225Z,98005.39
2022-09-06T23:51:19.890Z,98016.84
2022-09-06T23:53:48.113Z,98016.16
2022-09-06T23:56:16.289Z,98010.73
2022-09-06T23:58:44.329Z,97999.78
